Time;durP1;ratioP1;P1;durP2;ratioP2;P2;SDS_P1;SDS_P2;PMS_P1;PMS_P2;Temp;Humidity;BMP_temperature;BMP_pressure;BME280_temperature;BME280_humidity;BME280_pressure;Samples;Min_cycle;Max_cycle;Signal;HPM_P1;HPM_P2
2022/06/27 00:00:39;;;;;;;11.48;3.22;;;;;;;;;;6180182;23;20021;-45
2022/06/27 00:03:06;;;;;;;14.00;3.80;;;;;;;;;;6171307;23;20017;-46
2022/06/27 00:05:32;;;;;;;15.40;3.20;;;;;;;;;;6172056;23;20017;-46
2022/06/27 00:07:59;;;;;;;15.35;3.35;;;;;;;;;;6170224;23;20013;-47
2022/06/27 00:10:28;;;;;;;18.67;4.15;;;;;;;;;;6177938;23;20037;-44
2022/06/27 00:12:55;;;;;;;12.55;4.15;;;;;;;;;;6173177;23;20024;-46
2022/06/27 00:15:23;;;;;;;19.50;3.70;;;;;;;;;;6173942;23;20483;-46
2022/06/27 00:17:49;;;;;;;10.15;2.60;;;;;;;;;;6166645;23;20017;-47
2022/06/27 00:20:16;;;;;;;12.00;3.53;;;;;;;;;;6172325;23;20017;-45
2022/06/27 00:22:43;;;;;;;16.45;4.18;;;;;;;;;;6176070;23;20017;-46
2022/06/27 00:25:11;;;;;;;11.25;3.75;;;;;;;;;;6168490;23;20048;-47
2022/06/27 00:27:37;;;;;;;15.45;3.83;;;;;;;;;;6149799;23;20070;-45
2022/06/27 00:30:04;;;;;;;10.10;3.50;;;;;;;;;;6168476;23;20020;-47
2022/06/27 00:32:32;;;;;;;20.20;3.88;;;;;;;;;;6177446;23;20063;-47
2022/06/27 00:34:59;;;;;;;13.35;3.67;;;;;;;;;;6160084;23;20013;-46
2022/06/27 00:37:25;;;;;;;19.10;4.00;;;;;;;;;;6177291;23;20023;-45
2022/06/27 00:39:52;;;;;;;15.75;3.55;;;;;;;;;;6163665;23;20017;-45
2022/06/27 00:42:18;;;;;;;18.45;3.78;;;;;;;;;;6174197;23;20017;-44
2022/06/27 00:44:45;;;;;;;20.98;3.63;;;;;;;;;;6168811;23;20052;-46
2022/06/27 00:47:12;;;;;;;14.95;3.55;;;;;;;;;;6171867;23;20017;-46
2022/06/27 00:49:41;;;;;;;16.65;4.30;;;;;;;;;;6168350;23;20441;-47
2022/06/27 00:52:08;;;;;;;18.77;3.47;;;;;;;;;;6172402;23;20329;-46
2022/06/27 00:54:36;;;;;;;21.58;4.45;;;;;;;;;;6174785;23;20013;-46
2022/06/27 00:57:03;;;;;;;10.10;3.80;;;;;;;;;;6169266;23;20023;-46
2022/06/27 00:59:29;;;;;;;13.18;3.03;;;;;;;;;;6172763;23;20017;-44
2022/06/27 01:01:55;;;;;;;9.32;3.40;;;;;;;;;;6178678;23;20021;-45
2022/06/27 01:04:22;;;;;;;13.82;3.95;;;;;;;;;;6167134;23;20481;-46
2022/06/27 01:06:51;;;;;;;12.82;3.47;;;;;;;;;;6177161;23;20013;-46
2022/06/27 01:09:19;;;;;;;14.32;3.97;;;;;;;;;;6162228;23;20097;-46
2022/06/27 01:11:46;;;;;;;21.42;3.90;;;;;;;;;;6170953;23;20013;-45
2022/06/27 01:14:13;;;;;;;10.55;3.15;;;;;;;;;;6173768;23;20332;-47
2022/06/27 01:16:39;;;;;;;20.45;4.10;;;;;;;;;;6171128;23;20013;-47
2022/06/27 01:19:10;;;;;;;19.27;3.40;;;;;;;;;;6172238;23;20048;-45
2022/06/27 01:21:40;;;;;;;16.00;4.22;;;;;;;;;;6144994;23;20021;-47
2022/06/27 01:24:08;;;;;;;13.55;3.35;;;;;;;;;;6164317;23;20029;-47
2022/06/27 01:26:35;;;;;;;15.45;3.53;;;;;;;;;;6176571;23;20017;-46
2022/06/27 01:29:01;;;;;;;20.90;4.20;;;;;;;;;;6168585;23;20013;-46
2022/06/27 01:31:28;;;;;;;14.98;3.53;;;;;;;;;;6176691;23;20013;-48
2022/06/27 01:33:54;;;;;;;12.23;3.72;;;;;;;;;;6169117;23;20017;-44
2022/06/27 01:39:05;;;;;;;18.48;4.00;;;;;;;;;;6169809;23;20467;-46
2022/06/27 01:41:33;;;;;;;15.95;3.70;;;;;;;;;;6168327;23;20128;-45
2022/06/27 01:44:00;;;;;;;12.73;3.33;;;;;;;;;;6168030;23;20025;-45
2022/06/27 01:46:38;;;;;;;15.38;3.50;;;;;;;;;;6177435;23;20017;-46
2022/06/27 01:49:05;;;;;;;18.90;4.32;;;;;;;;;;6166975;23;20649;-45
2022/06/27 01:51:32;;;;;;;10.85;3.95;;;;;;;;;;6173427;23;20435;-45
2022/06/27 01:53:58;;;;;;;15.15;3.30;;;;;;;;;;6166408;23;20044;-46
2022/06/27 01:56:25;;;;;;;15.25;4.10;;;;;;;;;;6173137;23;20026;-44
2022/06/27 01:58:57;;;;;;;9.00;3.45;;;;;;;;;;6134134;23;20398;-45
2022/06/27 02:01:24;;;;;;;14.05;4.13;;;;;;;;;;6168197;23;20013;-44
2022/06/27 02:03:50;;;;;;;7.95;3.20;;;;;;;;;;6176776;23;20044;-45
2022/06/27 02:06:17;;;;;;;12.10;3.88;;;;;;;;;;6168707;23;20021;-45
2022/06/27 02:08:46;;;;;;;11.45;3.85;;;;;;;;;;6165963;23;20013;-44
2022/06/27 02:11:13;;;;;;;12.73;4.90;;;;;;;;;;6161741;23;20009;-45
2022/06/27 02:13:39;;;;;;;14.52;4.38;;;;;;;;;;6164700;23;20017;-45
2022/06/27 02:16:08;;;;;;;12.27;3.60;;;;;;;;;;6177342;23;20017;-46
2022/06/27 02:18:36;;;;;;;12.68;4.18;;;;;;;;;;6176068;23;20021;-44
2022/06/27 02:21:03;;;;;;;18.38;5.00;;;;;;;;;;6168356;23;20360;-46
2022/06/27 02:23:31;;;;;;;17.35;4.28;;;;;;;;;;6169831;23;20060;-45
2022/06/27 02:25:59;;;;;;;14.48;4.55;;;;;;;;;;6176370;23;20021;-45
2022/06/27 02:28:27;;;;;;;15.27;4.25;;;;;;;;;;6170200;23;20543;-45
2022/06/27 02:30:54;;;;;;;17.95;4.00;;;;;;;;;;6173062;23;20017;-46
2022/06/27 02:33:22;;;;;;;16.20;4.00;;;;;;;;;;6170421;23;20077;-44
2022/06/27 02:35:50;;;;;;;12.27;4.20;;;;;;;;;;6168261;23;20345;-44
2022/06/27 02:38:17;;;;;;;12.18;3.80;;;;;;;;;;6169766;23;20013;-47
2022/06/27 02:40:45;;;;;;;12.43;4.70;;;;;;;;;;6141122;23;20017;-45
2022/06/27 02:43:13;;;;;;;13.50;3.45;;;;;;;;;;6166093;23;20017;-47
2022/06/27 02:45:40;;;;;;;19.45;4.72;;;;;;;;;;6169349;23;20021;-46
2022/06/27 02:48:08;;;;;;;17.27;3.80;;;;;;;;;;6176700;23;20378;-47
2022/06/27 02:50:39;;;;;;;15.85;4.13;;;;;;;;;;6171471;23;20017;-44
2022/06/27 02:53:09;;;;;;;17.48;3.95;;;;;;;;;;6135663;23;20052;-45
2022/06/27 02:55:38;;;;;;;15.10;3.95;;;;;;;;;;6169363;23;20013;-46
2022/06/27 02:58:10;;;;;;;10.32;3.40;;;;;;;;;;6156137;23;20017;-45
2022/06/27 03:00:40;;;;;;;9.43;3.15;;;;;;;;;;6145329;23;20471;-45
2022/06/27 03:03:07;;;;;;;15.55;3.40;;;;;;;;;;6151455;23;20017;-45
2022/06/27 03:05:33;;;;;;;24.20;4.13;;;;;;;;;;6177173;23;20021;-44
2022/06/27 03:08:01;;;;;;;17.40;3.75;;;;;;;;;;6166792;23;20013;-44
2022/06/27 03:10:28;;;;;;;17.38;5.32;;;;;;;;;;6149266;23;20344;-47
2022/06/27 03:12:54;;;;;;;13.90;4.32;;;;;;;;;;6171904;23;20088;-45
2022/06/27 03:15:21;;;;;;;15.30;4.63;;;;;;;;;;6175965;23;20013;-44
2022/06/27 03:17:48;;;;;;;15.18;4.35;;;;;;;;;;6177103;23;20017;-44
2022/06/27 03:20:14;;;;;;;14.32;3.78;;;;;;;;;;6168798;23;20017;-45
2022/06/27 03:22:41;;;;;;;15.50;3.53;;;;;;;;;;6172010;23;20040;-46
2022/06/27 03:25:09;;;;;;;16.58;4.30;;;;;;;;;;6145247;23;20462;-46
2022/06/27 03:27:36;;;;;;;16.58;4.35;;;;;;;;;;6171171;23;20040;-44
2022/06/27 03:30:02;;;;;;;12.25;3.55;;;;;;;;;;6168431;23;20020;-45
2022/06/27 03:32:29;;;;;;;30.98;4.78;;;;;;;;;;6169734;23;20020;-47
2022/06/27 03:34:56;;;;;;;15.68;3.92;;;;;;;;;;6169453;23;20017;-47
2022/06/27 03:37:22;;;;;;;22.58;5.28;;;;;;;;;;6162981;23;20017;-47
2022/06/27 03:39:49;;;;;;;11.98;3.90;;;;;;;;;;6174892;23;20044;-47
2022/06/27 03:42:16;;;;;;;16.67;3.65;;;;;;;;;;6166119;23;20023;-44
2022/06/27 03:44:43;;;;;;;9.55;3.55;;;;;;;;;;6161808;23;20418;-46
2022/06/27 03:47:09;;;;;;;12.82;3.90;;;;;;;;;;6148309;23;20013;-47
2022/06/27 03:52:20;;;;;;;13.10;3.40;;;;;;;;;;6166906;23;20024;-46
2022/06/27 03:54:47;;;;;;;14.40;3.70;;;;;;;;;;6170085;23;20360;-45
2022/06/27 03:57:13;;;;;;;17.38;4.00;;;;;;;;;;6182541;23;20027;-44
2022/06/27 03:59:41;;;;;;;14.93;3.28;;;;;;;;;;6159128;23;20013;-45
2022/06/27 04:02:09;;;;;;;10.52;3.28;;;;;;;;;;6176587;23;20021;-49
2022/06/27 04:04:35;;;;;;;11.00;3.80;;;;;;;;;;6171678;23;20040;-45
2022/06/27 04:07:02;;;;;;;18.35;4.57;;;;;;;;;;6172581;23;20024;-44
2022/06/27 04:09:29;;;;;;;17.73;3.70;;;;;;;;;;6177220;23;20013;-45
2022/06/27 04:11:55;;;;;;;9.23;3.53;;;;;;;;;;6175934;23;20013;-44
2022/06/27 04:14:22;;;;;;;12.70;3.55;;;;;;;;;;6168995;23;20024;-45
2022/06/27 04:16:52;;;;;;;17.38;3.72;;;;;;;;;;6173808;23;20073;-45
2022/06/27 04:19:18;;;;;;;20.83;5.10;;;;;;;;;;6170936;23;20028;-45
2022/06/27 04:21:44;;;;;;;17.27;3.78;;;;;;;;;;6175540;23;20017;-44
2022/06/27 04:24:11;;;;;;;17.55;4.18;;;;;;;;;;6170732;23;20013;-44
2022/06/27 04:26:38;;;;;;;12.60;3.42;;;;;;;;;;6171889;23;20112;-46
2022/06/27 04:29:04;;;;;;;13.68;3.95;;;;;;;;;;6168998;23;20451;-44
2022/06/27 04:31:31;;;;;;;13.48;3.97;;;;;;;;;;6170222;23;20013;-45
2022/06/27 04:33:59;;;;;;;15.30;3.20;;;;;;;;;;6173827;23;20037;-44
2022/06/27 04:36:26;;;;;;;15.55;3.45;;;;;;;;;;6140312;23;20452;-46
2022/06/27 04:38:53;;;;;;;12.02;2.92;;;;;;;;;;6169915;23;20017;-45
2022/06/27 04:41:20;;;;;;;12.15;3.25;;;;;;;;;;6172606;23;20254;-44
2022/06/27 04:43:46;;;;;;;15.35;3.63;;;;;;;;;;6173558;23;20021;-46
2022/06/27 04:46:13;;;;;;;16.42;3.25;;;;;;;;;;6169561;23;20325;-46
2022/06/27 04:48:39;;;;;;;13.88;4.18;;;;;;;;;;6177123;23;20024;-45
2022/06/27 04:51:08;;;;;;;15.15;3.88;;;;;;;;;;6170469;23;20476;-46
2022/06/27 04:53:35;;;;;;;22.90;4.50;;;;;;;;;;6149305;23;20025;-48
2022/06/27 04:56:01;;;;;;;8.15;2.65;;;;;;;;;;6140373;23;20250;-47
2022/06/27 04:58:28;;;;;;;12.25;2.80;;;;;;;;;;6176276;23;20067;-51
2022/06/27 05:00:55;;;;;;;10.52;2.67;;;;;;;;;;6143844;23;20079;-46
2022/06/27 05:03:23;;;;;;;15.95;2.60;;;;;;;;;;6173237;23;20013;-46
2022/06/27 05:05:50;;;;;;;13.35;3.38;;;;;;;;;;6164552;23;20021;-45
2022/06/27 05:08:18;;;;;;;10.95;3.22;;;;;;;;;;6178681;23;20016;-45
2022/06/27 05:10:44;;;;;;;16.55;3.42;;;;;;;;;;6168262;23;20096;-46
2022/06/27 05:13:10;;;;;;;10.38;3.30;;;;;;;;;;6169290;23;20027;-48
2022/06/27 05:15:37;;;;;;;15.32;3.33;;;;;;;;;;6171219;23;20080;-44
2022/06/27 05:18:04;;;;;;;14.13;3.17;;;;;;;;;;6153305;23;20546;-45
2022/06/27 05:20:31;;;;;;;13.40;3.53;;;;;;;;;;6171118;23;20012;-44
2022/06/27 05:23:00;;;;;;;10.23;2.92;;;;;;;;;;6171631;23;20467;-46
2022/06/27 05:25:28;;;;;;;9.73;3.55;;;;;;;;;;6172571;23;20021;-45
2022/06/27 05:27:56;;;;;;;12.77;3.13;;;;;;;;;;6167720;23;20027;-44
2022/06/27 05:30:22;;;;;;;17.10;2.83;;;;;;;;;;6177507;23;20013;-48
2022/06/27 05:32:49;;;;;;;18.63;3.78;;;;;;;;;;6168062;23;20040;-46
2022/06/27 05:35:16;;;;;;;13.80;3.05;;;;;;;;;;6171928;23;20013;-46
2022/06/27 05:37:44;;;;;;;11.70;3.88;;;;;;;;;;6170482;23;20019;-47
2022/06/27 05:40:10;;;;;;;10.73;3.30;;;;;;;;;;6143068;23;20428;-45
2022/06/27 05:42:39;;;;;;;16.92;3.67;;;;;;;;;;6170417;23;20447;-46
2022/06/27 05:45:06;;;;;;;10.13;3.30;;;;;;;;;;6158367;23;20076;-45
2022/06/27 05:47:33;;;;;;;9.18;2.45;;;;;;;;;;6172529;23;20247;-44
2022/06/27 05:50:00;;;;;;;9.13;2.45;;;;;;;;;;6169530;23;20463;-45
2022/06/27 05:52:27;;;;;;;6.45;2.20;;;;;;;;;;6175129;23;20013;-45
2022/06/27 05:54:54;;;;;;;9.23;1.90;;;;;;;;;;6167623;23;20024;-45
2022/06/27 05:57:20;;;;;;;5.82;2.10;;;;;;;;;;6175480;23;20013;-46
2022/06/27 05:59:49;;;;;;;6.63;2.15;;;;;;;;;;6170396;23;20016;-46
2022/06/27 06:02:16;;;;;;;9.35;1.92;;;;;;;;;;6175677;23;20016;-45
2022/06/27 06:04:43;;;;;;;11.85;2.50;;;;;;;;;;6176412;23;20236;-46
2022/06/27 06:07:09;;;;;;;11.10;2.28;;;;;;;;;;6167658;23;20039;-48
2022/06/27 06:09:37;;;;;;;10.65;1.98;;;;;;;;;;6175414;23;20023;-46
2022/06/27 06:12:04;;;;;;;5.13;2.30;;;;;;;;;;6165127;23;20028;-46
2022/06/27 06:14:31;;;;;;;4.05;2.05;;;;;;;;;;6177483;23;20044;-46
2022/06/27 06:16:59;;;;;;;9.95;2.25;;;;;;;;;;6157463;23;20017;-46
2022/06/27 06:19:25;;;;;;;8.50;2.03;;;;;;;;;;6177208;23;20487;-47
2022/06/27 06:21:52;;;;;;;10.07;2.72;;;;;;;;;;6171895;23;20020;-44
2022/06/27 06:24:18;;;;;;;6.65;2.58;;;;;;;;;;6171920;23;20017;-46
2022/06/27 06:26:45;;;;;;;10.93;2.58;;;;;;;;;;6139162;23;20017;-46
2022/06/27 06:29:14;;;;;;;3.53;2.13;;;;;;;;;;6170857;23;20064;-47
2022/06/27 06:31:43;;;;;;;8.50;2.58;;;;;;;;;;6167692;23;20017;-45
2022/06/27 06:34:11;;;;;;;9.63;2.67;;;;;;;;;;6171847;23;20111;-47
2022/06/27 06:36:38;;;;;;;7.22;2.75;;;;;;;;;;6172596;23;20531;-44
2022/06/27 06:39:05;;;;;;;10.77;2.33;;;;;;;;;;6173019;23;20013;-45
2022/06/27 06:41:32;;;;;;;7.28;2.42;;;;;;;;;;6171623;23;20021;-48
2022/06/27 06:43:59;;;;;;;10.68;2.60;;;;;;;;;;6176753;23;20024;-48
2022/06/27 06:46:26;;;;;;;10.65;2.65;;;;;;;;;;6172451;23;20340;-49
2022/06/27 06:48:54;;;;;;;8.65;2.40;;;;;;;;;;6172150;23;20044;-50
2022/06/27 06:51:22;;;;;;;9.80;2.03;;;;;;;;;;6170111;23;20041;-46
2022/06/27 06:53:48;;;;;;;11.68;2.75;;;;;;;;;;6174484;23;20493;-47
2022/06/27 06:56:15;;;;;;;4.15;1.90;;;;;;;;;;6144615;23;20017;-48
2022/06/27 06:58:42;;;;;;;15.73;2.58;;;;;;;;;;6175295;23;20009;-48
2022/06/27 07:01:09;;;;;;;11.02;2.65;;;;;;;;;;6170553;23;20023;-49
2022/06/27 07:03:36;;;;;;;6.88;2.28;;;;;;;;;;6173453;23;20013;-46
2022/06/27 07:06:03;;;;;;;7.85;2.13;;;;;;;;;;6172379;23;20051;-46
2022/06/27 07:08:33;;;;;;;5.90;2.10;;;;;;;;;;6146636;23;20433;-49
2022/06/27 07:11:00;;;;;;;8.95;2.55;;;;;;;;;;6170193;23;20072;-46
2022/06/27 07:13:26;;;;;;;6.13;2.17;;;;;;;;;;6174250;23;20013;-47
2022/06/27 07:15:53;;;;;;;10.07;2.30;;;;;;;;;;6164031;23;20021;-46
2022/06/27 07:18:20;;;;;;;4.80;1.73;;;;;;;;;;6174785;23;20013;-47
2022/06/27 07:20:47;;;;;;;8.57;2.22;;;;;;;;;;6170447;23;20367;-47
2022/06/27 07:23:13;;;;;;;7.50;1.83;;;;;;;;;;6173920;23;20029;-46
2022/06/27 07:25:41;;;;;;;6.05;1.88;;;;;;;;;;6164876;23;20107;-45
2022/06/27 07:28:08;;;;;;;7.20;1.65;;;;;;;;;;6174123;23;20282;-50
2022/06/27 07:30:35;;;;;;;6.10;1.80;;;;;;;;;;6165901;23;20020;-49
2022/06/27 07:33:02;;;;;;;5.82;1.60;;;;;;;;;;6176672;23;20290;-47
2022/06/27 07:35:29;;;;;;;4.70;1.88;;;;;;;;;;6170641;23;20040;-47
2022/06/27 07:37:55;;;;;;;8.13;1.70;;;;;;;;;;6167134;23;20028;-45
2022/06/27 07:40:23;;;;;;;4.10;2.22;;;;;;;;;;6164754;23;20016;-45
2022/06/27 07:42:51;;;;;;;11.68;2.58;;;;;;;;;;6173356;23;20017;-45
2022/06/27 07:45:18;;;;;;;10.55;2.25;;;;;;;;;;6175972;23;20436;-46
2022/06/27 07:47:46;;;;;;;4.82;1.17;;;;;;;;;;6173216;23;20024;-46
2022/06/27 07:50:36;;;;;;;4.38;1.20;;;;;;;;;;6150091;23;20043;-46
2022/06/27 07:53:15;;;;;;;3.65;1.05;;;;;;;;;;6145664;23;20020;-47
2022/06/27 07:55:42;;;;;;;4.55;1.73;;;;;;;;;;6164871;23;20109;-47
2022/06/27 07:58:14;;;;;;;4.00;1.83;;;;;;;;;;6174539;23;20419;-46
2022/06/27 08:00:42;;;;;;;4.82;1.30;;;;;;;;;;6160680;23;20013;-46
2022/06/27 08:05:50;;;;;;;3.10;1.58;;;;;;;;;;6149999;23;20028;-47
2022/06/27 08:08:17;;;;;;;4.03;1.13;;;;;;;;;;6174446;23;20017;-46
2022/06/27 08:10:44;;;;;;;4.53;1.27;;;;;;;;;;6160125;23;20017;-48
2022/06/27 08:13:12;;;;;;;4.53;1.38;;;;;;;;;;6170106;23;20020;-49
2022/06/27 08:15:41;;;;;;;2.95;1.15;;;;;;;;;;6157145;23;20502;-45
2022/06/27 08:18:08;;;;;;;3.47;1.08;;;;;;;;;;6154521;23;20080;-45
2022/06/27 08:20:35;;;;;;;5.10;1.08;;;;;;;;;;6173178;23;20017;-45
2022/06/27 08:23:02;;;;;;;4.97;1.20;;;;;;;;;;6164979;23;20040;-46
2022/06/27 08:25:28;;;;;;;3.35;0.95;;;;;;;;;;6169547;23;20017;-47
2022/06/27 08:27:55;;;;;;;4.18;1.42;;;;;;;;;;6172434;23;20021;-46
2022/06/27 08:30:25;;;;;;;4.45;1.63;;;;;;;;;;6167591;23;20479;-45
2022/06/27 08:32:55;;;;;;;3.63;1.38;;;;;;;;;;6170650;23;20025;-45
2022/06/27 08:35:21;;;;;;;;;;;;;;;;;;6177537;23;20017;-46
2022/06/27 08:37:50;;;;;;;4.80;1.27;;;;;;;;;;6167384;23;19917;-47
2022/06/27 08:40:17;;;;;;;3.45;1.40;;;;;;;;;;6168386;23;20017;-45
2022/06/27 08:42:44;;;;;;;3.38;0.70;;;;;;;;;;6159612;23;20063;-46
2022/06/27 08:45:12;;;;;;;2.78;0.70;;;;;;;;;;6174860;23;20077;-47
2022/06/27 08:47:46;;;;;;;1.92;1.10;;;;;;;;;;6169195;23;20013;-48
2022/06/27 08:50:14;;;;;;;2.58;0.85;;;;;;;;;;6169079;23;20024;-46
2022/06/27 08:52:40;;;;;;;5.43;1.00;;;;;;;;;;6170616;23;20051;-47
2022/06/27 08:55:08;;;;;;;2.42;1.27;;;;;;;;;;6165858;23;20023;-45
2022/06/27 08:57:36;;;;;;;2.97;0.82;;;;;;;;;;6136209;23;20032;-46
2022/06/27 09:00:04;;;;;;;2.10;1.33;;;;;;;;;;6175818;23;20043;-47
2022/06/27 09:02:31;;;;;;;2.25;0.95;;;;;;;;;;6159221;23;20013;-45
2022/06/27 09:04:59;;;;;;;3.00;0.95;;;;;;;;;;6170403;23;20048;-45
2022/06/27 09:07:43;;;;;;;6.50;1.13;;;;;;;;;;6144658;23;20035;-47
2022/06/27 09:10:23;;;;;;;3.97;1.17;;;;;;;;;;6177928;23;20101;-46
2022/06/27 09:12:54;;;;;;;4.35;1.00;;;;;;;;;;6171134;23;20017;-48
2022/06/27 09:15:21;;;;;;;4.55;1.20;;;;;;;;;;6170430;23;20039;-46
2022/06/27 09:17:59;;;;;;;4.32;0.80;;;;;;;;;;6172600;23;20120;-46
2022/06/27 09:20:44;;;;;;;5.32;1.27;;;;;;;;;;6170715;23;20017;-48
2022/06/27 09:23:26;;;;;;;3.28;1.48;;;;;;;;;;6176297;23;20013;-46
2022/06/27 09:25:58;;;;;;;6.22;1.33;;;;;;;;;;6172103;23;20036;-45
2022/06/27 09:28:36;;;;;;;7.82;1.20;;;;;;;;;;6177305;23;20040;-46
2022/06/27 09:31:03;;;;;;;4.35;1.08;;;;;;;;;;6174532;23;20013;-48
2022/06/27 09:33:31;;;;;;;3.60;1.00;;;;;;;;;;6171721;23;20037;-51
2022/06/27 09:35:58;;;;;;;2.58;0.90;;;;;;;;;;6171491;23;20043;-45
2022/06/27 09:38:27;;;;;;;5.10;1.35;;;;;;;;;;6171649;23;20388;-49
2022/06/27 09:40:53;;;;;;;1.77;0.82;;;;;;;;;;6175931;23;20412;-46
2022/06/27 09:43:22;;;;;;;6.18;1.23;;;;;;;;;;6169969;23;20025;-48
2022/06/27 09:45:51;;;;;;;3.47;0.95;;;;;;;;;;6174735;23;20017;-50
2022/06/27 09:48:18;;;;;;;2.90;1.00;;;;;;;;;;6169738;23;20510;-46
2022/06/27 09:50:47;;;;;;;2.90;0.75;;;;;;;;;;6174096;23;20041;-47
2022/06/27 09:53:16;;;;;;;3.90;1.45;;;;;;;;;;6165760;23;20021;-46
2022/06/27 09:55:46;;;;;;;4.10;1.02;;;;;;;;;;6176480;23;20017;-47
2022/06/27 09:58:13;;;;;;;2.53;0.90;;;;;;;;;;6167059;23;20471;-45
2022/06/27 10:00:41;;;;;;;2.90;1.05;;;;;;;;;;6171497;23;20092;-46
2022/06/27 10:03:07;;;;;;;4.57;0.85;;;;;;;;;;6179712;23;20044;-47
2022/06/27 10:05:34;;;;;;;3.22;0.60;;;;;;;;;;6165908;23;20073;-46
2022/06/27 10:08:02;;;;;;;2.30;0.85;;;;;;;;;;6175569;23;20041;-47
2022/06/27 10:10:30;;;;;;;0.82;0.70;;;;;;;;;;6172264;23;20017;-47
2022/06/27 10:12:58;;;;;;;1.80;0.70;;;;;;;;;;6171970;23;20020;-48
2022/06/27 10:15:26;;;;;;;1.92;0.82;;;;;;;;;;6164740;23;20537;-47
2022/06/27 10:17:53;;;;;;;2.25;0.50;;;;;;;;;;6175093;23;20024;-46
2022/06/27 10:20:21;;;;;;;4.90;0.60;;;;;;;;;;6172186;23;20407;-49
2022/06/27 10:22:48;;;;;;;2.05;0.70;;;;;;;;;;6172165;23;20017;-46
2022/06/27 10:25:32;;;;;;;1.42;0.70;;;;;;;;;;6171938;23;20013;-46
2022/06/27 10:28:14;;;;;;;4.00;0.70;;;;;;;;;;6151193;23;20048;-46
2022/06/27 10:30:43;;;;;;;5.60;0.93;;;;;;;;;;6173852;23;20024;-45
2022/06/27 10:33:24;;;;;;;4.57;1.48;;;;;;;;;;6168161;23;20549;-46
2022/06/27 10:36:10;;;;;;;4.10;0.85;;;;;;;;;;6159002;23;20075;-47
2022/06/27 10:38:45;;;;;;;4.47;0.80;;;;;;;;;;6148544;23;20017;-45
2022/06/27 10:41:31;;;;;;;1.30;0.90;;;;;;;;;;6166101;23;20044;-45
2022/06/27 10:43:59;;;;;;;5.90;1.10;;;;;;;;;;6170868;23;20013;-47
2022/06/27 10:46:52;;;;;;;7.90;1.00;;;;;;;;;;6171971;23;20044;-46
2022/06/27 10:49:27;;;;;;;4.85;1.17;;;;;;;;;;6144328;23;20013;-48
2022/06/27 10:52:11;;;;;;;3.95;1.33;;;;;;;;;;6170676;23;20486;-45
2022/06/27 10:54:38;;;;;;;3.67;1.40;;;;;;;;;;6169566;23;20023;-47
2022/06/27 10:57:04;;;;;;;5.07;1.13;;;;;;;;;;6171801;23;20459;-49
2022/06/27 11:00:04;;;;;;;1.58;0.77;;;;;;;;;;6161534;23;20507;-48
2022/06/27 11:02:33;;;;;;;4.00;1.10;;;;;;;;;;6167030;23;20042;-46
2022/06/27 11:05:01;;;;;;;2.20;1.25;;;;;;;;;;6168101;23;20020;-45
2022/06/27 11:07:28;;;;;;;5.68;1.10;;;;;;;;;;6175440;23;20027;-46
2022/06/27 11:09:55;;;;;;;2.63;1.05;;;;;;;;;;6164884;23;20456;-45
2022/06/27 11:12:28;;;;;;;4.75;1.10;;;;;;;;;;6126788;23;20024;-49
2022/06/27 11:14:57;;;;;;;4.93;1.73;;;;;;;;;;6147955;23;20379;-44
2022/06/27 11:17:31;;;;;;;4.70;1.63;;;;;;;;;;6163887;23;20096;-45
2022/06/27 11:20:15;;;;;;;1.80;1.45;;;;;;;;;;6169543;23;20093;-45
2022/06/27 11:22:44;;;;;;;2.38;0.90;;;;;;;;;;6163949;23;20043;-46
2022/06/27 11:25:11;;;;;;;3.27;1.30;;;;;;;;;;6174766;23;20021;-47
2022/06/27 11:27:44;;;;;;;5.50;1.20;;;;;;;;;;6162345;23;20021;-47
2022/06/27 11:32:54;;;;;;;3.90;2.15;;;;;;;;;;6104337;23;20021;-47
2022/06/27 11:35:21;;;;;;;5.20;1.80;;;;;;;;;;6161757;23;20013;-48
2022/06/27 11:37:49;;;;;;;2.88;1.45;;;;;;;;;;6143357;23;20296;-49
2022/06/27 11:40:15;;;;;;;5.85;1.60;;;;;;;;;;6164628;23;20025;-47
2022/06/27 11:42:43;;;;;;;4.88;1.50;;;;;;;;;;6146517;23;20459;-45
2022/06/27 11:45:10;;;;;;;3.15;1.45;;;;;;;;;;6164411;23;20097;-44
2022/06/27 11:47:39;;;;;;;3.83;1.00;;;;;;;;;;6138783;23;20089;-46
2022/06/27 11:50:07;;;;;;;4.30;1.57;;;;;;;;;;6163836;23;20028;-45
2022/06/27 11:52:37;;;;;;;4.72;1.05;;;;;;;;;;6155331;23;20096;-45
2022/06/27 11:55:09;;;;;;;2.88;1.10;;;;;;;;;;6170093;23;20023;-45
2022/06/27 11:57:35;;;;;;;2.88;1.02;;;;;;;;;;6162858;23;20017;-45
2022/06/27 12:00:04;;;;;;;3.30;1.50;;;;;;;;;;6174312;23;20016;-46
2022/06/27 12:02:32;;;;;;;6.50;1.70;;;;;;;;;;6164972;23;20020;-47
2022/06/27 12:05:08;;;;;;;7.15;1.33;;;;;;;;;;6173918;23;20016;-46
2022/06/27 12:07:52;;;;;;;7.68;1.52;;;;;;;;;;6161334;23;20025;-47
2022/06/27 12:10:34;;;;;;;3.00;1.85;;;;;;;;;;6171425;23;20578;-45
2022/06/27 12:13:00;;;;;;;1.73;1.33;;;;;;;;;;6170223;23;20017;-48
2022/06/27 12:15:28;;;;;;;3.55;1.23;;;;;;;;;;6162772;23;20325;-44
2022/06/27 12:17:56;;;;;;;5.30;1.65;;;;;;;;;;6174311;23;20100;-45
2022/06/27 12:20:23;;;;;;;4.18;1.75;;;;;;;;;;6142879;23;20024;-45
2022/06/27 12:22:50;;;;;;;5.07;1.15;;;;;;;;;;6139657;23;20017;-47
2022/06/27 12:25:17;;;;;;;3.50;1.25;;;;;;;;;;6164957;23;20438;-46
2022/06/27 12:27:45;;;;;;;2.25;1.08;;;;;;;;;;6164490;23;20030;-47
2022/06/27 12:30:12;;;;;;;5.88;1.20;;;;;;;;;;6169987;23;20017;-48
2022/06/27 12:32:40;;;;;;;5.90;1.50;;;;;;;;;;6154712;23;20013;-49
2022/06/27 12:35:07;;;;;;;7.30;1.33;;;;;;;;;;6171226;23;20493;-46
2022/06/27 12:37:34;;;;;;;5.78;1.52;;;;;;;;;;6162247;23;20048;-46
2022/06/27 12:40:02;;;;;;;8.70;2.03;;;;;;;;;;6159912;23;20009;-47
2022/06/27 12:42:29;;;;;;;5.07;1.52;;;;;;;;;;6171801;23;20740;-47
2022/06/27 12:44:57;;;;;;;4.47;1.38;;;;;;;;;;6161637;23;20017;-46
2022/06/27 12:47:23;;;;;;;6.32;1.20;;;;;;;;;;6173344;23;20036;-45
2022/06/27 12:49:50;;;;;;;6.63;1.45;;;;;;;;;;6164516;23;20077;-47
2022/06/27 12:52:17;;;;;;;7.85;1.17;;;;;;;;;;6167434;23;20520;-44
2022/06/27 12:54:44;;;;;;;2.63;1.30;;;;;;;;;;6171466;23;20020;-46
2022/06/27 12:57:13;;;;;;;5.30;1.08;;;;;;;;;;6169877;23;20017;-49
2022/06/27 12:59:40;;;;;;;5.22;1.23;;;;;;;;;;6170407;23;20020;-45
2022/06/27 13:02:08;;;;;;;10.18;1.95;;;;;;;;;;6169566;23;20009;-46
2022/06/27 13:04:34;;;;;;;7.32;2.00;;;;;;;;;;6158828;23;20331;-45
2022/06/27 13:07:01;;;;;;;3.10;1.33;;;;;;;;;;6175733;23;20013;-47
2022/06/27 13:09:29;;;;;;;6.00;1.40;;;;;;;;;;6160772;23;20032;-47
2022/06/27 13:11:56;;;;;;;5.38;1.30;;;;;;;;;;6177572;23;20459;-46
2022/06/27 13:14:22;;;;;;;7.75;1.48;;;;;;;;;;6164850;23;20013;-47
2022/06/27 13:16:50;;;;;;;11.02;1.65;;;;;;;;;;6170810;23;20072;-47
2022/06/27 13:19:18;;;;;;;8.65;1.55;;;;;;;;;;6165304;23;20013;-46
2022/06/27 13:21:44;;;;;;;8.57;1.63;;;;;;;;;;6171906;23;20020;-50
2022/06/27 13:24:10;;;;;;;6.68;1.10;;;;;;;;;;6175649;23;20013;-48
2022/06/27 13:26:37;;;;;;;5.13;1.50;;;;;;;;;;6162742;23;20075;-47
2022/06/27 13:29:03;;;;;;;5.72;1.50;;;;;;;;;;6147623;23;20027;-50
2022/06/27 13:31:30;;;;;;;10.98;1.50;;;;;;;;;;6169951;23;20064;-47
2022/06/27 13:33:57;;;;;;;5.38;1.25;;;;;;;;;;6166872;23;20391;-46
2022/06/27 13:36:26;;;;;;;4.88;1.73;;;;;;;;;;6167929;23;20035;-45
2022/06/27 13:38:52;;;;;;;6.95;1.60;;;;;;;;;;6175609;23;20017;-44
2022/06/27 13:41:19;;;;;;;9.27;1.60;;;;;;;;;;6158015;23;20016;-47
2022/06/27 13:43:45;;;;;;;7.63;1.52;;;;;;;;;;6170000;23;20028;-51
2022/06/27 13:46:12;;;;;;;7.50;1.33;;;;;;;;;;6161293;23;20013;-46
2022/06/27 13:48:38;;;;;;;4.60;1.15;;;;;;;;;;6171630;23;20025;-46
2022/06/27 13:51:05;;;;;;;2.03;0.93;;;;;;;;;;6132766;23;20017;-46
2022/06/27 13:53:33;;;;;;;9.77;1.70;;;;;;;;;;6174041;23;20013;-49
2022/06/27 13:56:00;;;;;;;7.60;2.28;;;;;;;;;;6165316;23;20017;-45
2022/06/27 13:58:26;;;;;;;9.52;1.35;;;;;;;;;;6179307;23;20092;-45
2022/06/27 14:00:53;;;;;;;4.45;1.38;;;;;;;;;;6171762;23;20024;-46
2022/06/27 14:03:19;;;;;;;4.72;1.30;;;;;;;;;;6147747;23;20020;-47
2022/06/27 14:05:46;;;;;;;3.03;0.80;;;;;;;;;;6159374;23;20021;-46
2022/06/27 14:08:11;;;;;;;8.35;1.50;;;;;;;;;;6177663;23;20048;-47
2022/06/27 14:10:54;;;;;;;4.53;0.85;;;;;;;;;;6158903;23;20016;-46
2022/06/27 14:13:21;;;;;;;3.65;1.50;;;;;;;;;;6177228;23;20020;-45
2022/06/27 14:15:48;;;;;;;2.88;0.95;;;;;;;;;;6158661;23;20340;-49
2022/06/27 14:18:14;;;;;;;4.82;1.15;;;;;;;;;;6175901;23;20020;-47
2022/06/27 14:20:41;;;;;;;7.10;1.65;;;;;;;;;;6170235;23;20124;-49
2022/06/27 14:23:07;;;;;;;2.72;1.00;;;;;;;;;;6166259;23;20031;-46
2022/06/27 14:25:35;;;;;;;4.28;0.93;;;;;;;;;;6161680;23;20044;-47
2022/06/27 14:28:03;;;;;;;6.00;1.33;;;;;;;;;;6176024;23;20021;-47
2022/06/27 14:30:30;;;;;;;4.43;1.60;;;;;;;;;;6148621;23;20021;-47
2022/06/27 14:32:57;;;;;;;4.93;1.05;;;;;;;;;;6171699;23;20021;-46
2022/06/27 14:35:23;;;;;;;2.53;0.98;;;;;;;;;;6169452;23;20013;-48
2022/06/27 14:37:51;;;;;;;3.17;1.23;;;;;;;;;;6166485;23;20024;-45
2022/06/27 14:40:17;;;;;;;4.07;1.25;;;;;;;;;;6164147;23;20024;-46
2022/06/27 14:42:44;;;;;;;5.70;1.10;;;;;;;;;;6153601;23;20230;-46
2022/06/27 14:45:12;;;;;;;2.35;0.90;;;;;;;;;;6165506;23;20017;-47
2022/06/27 14:47:38;;;;;;;8.15;1.92;;;;;;;;;;6161321;23;20017;-47
2022/06/27 14:50:07;;;;;;;5.18;1.95;;;;;;;;;;6171551;23;20036;-47
2022/06/27 14:52:33;;;;;;;3.90;0.97;;;;;;;;;;6143428;23;20016;-46
2022/06/27 14:55:00;;;;;;;2.50;1.00;;;;;;;;;;6150865;23;20012;-45